createdAt,value
2023-10-26T00:00:01.122Z,11.2
2023-10-26T00:03:01.648Z,11.2
2023-10-26T00:06:01.111Z,11.2
2023-10-26T00:09:01.146Z,11.2
2023-10-26T00:12:01.085Z,11.2
2023-10-26T00:15:01.107Z,11.2
2023-10-26T00:18:01.082Z,11.2
2023-10-26T00:21:01.066Z,11.2
2023-10-26T00:24:01.160Z,11.2
2023-10-26T00:27:01.027Z,11.2
2023-10-26T00:30:01.130Z,11.2
2023-10-26T00:33:01.296Z,11.2
2023-10-26T00:36:01.081Z,11.2
2023-10-26T00:39:01.071Z,11.2
2023-10-26T00:42:01.043Z,11.2
2023-10-26T00:45:01.159Z,11.2
2023-10-26T00:48:01.226Z,11.2
2023-10-26T00:51:01.091Z,11.2
2023-10-26T00:54:01.007Z,11.2
2023-10-26T00:57:01.051Z,11.2
2023-10-26T01:00:01.090Z,11.2
2023-10-26T01:03:01.067Z,11.2
2023-10-26T01:06:01.092Z,11.2
2023-10-26T01:09:01.043Z,11.2
2023-10-26T01:12:01.101Z,11.2
2023-10-26T01:15:01.075Z,11.2
2023-10-26T01:18:01.142Z,11.2
2023-10-26T01:21:01.132Z,11.2
2023-10-26T01:24:01.051Z,11.2
2023-10-26T01:27:01.063Z,11.2
2023-10-26T01:30:01.103Z,11.2
2023-10-26T01:33:01.152Z,11.2
2023-10-26T01:36:01.030Z,11.2
2023-10-26T01:39:01.098Z,11.2
2023-10-26T01:42:01.074Z,11.2
2023-10-26T01:45:01.028Z,11.2
2023-10-26T01:48:01.365Z,11.2
2023-10-26T01:51:01.075Z,11.2
2023-10-26T01:54:01.067Z,11.2
2023-10-26T01:57:01.079Z,11.2
2023-10-26T02:00:01.093Z,11.2
2023-10-26T02:03:01.103Z,11.2
2023-10-26T02:06:01.199Z,11.2
2023-10-26T02:09:01.132Z,11.2
2023-10-26T02:12:01.195Z,11.2
2023-10-26T02:15:01.270Z,11.2
2023-10-26T02:18:01.648Z,11.2
2023-10-26T02:21:01.193Z,11.2
2023-10-26T02:24:01.214Z,11.2
2023-10-26T02:27:00.977Z,11.2
2023-10-26T02:30:01.143Z,11.2
2023-10-26T02:33:01.241Z,11.2
2023-10-26T02:36:01.075Z,11.2
2023-10-26T02:39:01.100Z,11.2
2023-10-26T02:42:01.022Z,11.3
2023-10-26T02:45:01.149Z,11.3
2023-10-26T02:48:01.166Z,11.3
2023-10-26T02:51:01.093Z,11.3
2023-10-26T02:54:01.140Z,11.3
2023-10-26T02:57:01.062Z,11.3
2023-10-26T03:00:01.063Z,11.3
2023-10-26T03:03:01.291Z,11.3
2023-10-26T03:06:01.129Z,11.3
2023-10-26T03:09:01.115Z,11.3
2023-10-26T03:12:01.060Z,11.3
2023-10-26T03:15:01.058Z,11.3
2023-10-26T03:18:01.139Z,11.3
2023-10-26T03:21:01.094Z,11.3
2023-10-26T03:24:01.086Z,11.3
2023-10-26T03:27:01.123Z,11.3
2023-10-26T03:30:01.122Z,11.3
2023-10-26T03:33:01.299Z,11.3
2023-10-26T03:36:01.256Z,11.3
2023-10-26T03:39:01.093Z,11.3
2023-10-26T03:42:01.076Z,11.3
2023-10-26T03:45:01.148Z,11.3
2023-10-26T03:48:01.198Z,11.3
2023-10-26T03:51:01.055Z,11.3
2023-10-26T03:54:01.086Z,11.3
2023-10-26T03:57:01.068Z,11.3
2023-10-26T04:00:01.285Z,11.3
2023-10-26T04:03:03.515Z,11.3
2023-10-26T04:06:01.022Z,11.3
2023-10-26T04:09:01.053Z,11.3
2023-10-26T04:12:01.059Z,11.3
2023-10-26T04:15:01.116Z,11.3
2023-10-26T04:18:01.147Z,11.3
2023-10-26T04:21:00.991Z,11.3
2023-10-26T04:24:01.168Z,11.3
2023-10-26T04:27:01.003Z,11.3
2023-10-26T04:30:01.151Z,11.3
2023-10-26T04:33:01.218Z,11.3
2023-10-26T04:36:01.064Z,11.3
2023-10-26T04:39:01.044Z,11.3
2023-10-26T04:42:01.046Z,11.3
2023-10-26T04:45:01.076Z,11.3
2023-10-26T04:48:01.262Z,11.3
2023-10-26T04:51:01.044Z,11.3
2023-10-26T04:54:01.080Z,11.3
2023-10-26T04:57:01.117Z,11.3
2023-10-26T05:00:01.106Z,11.3
2023-10-26T05:03:01.314Z,11.3
2023-10-26T05:06:01.242Z,11.3
2023-10-26T05:09:03.547Z,11.3
2023-10-26T05:12:01.045Z,11.3
2023-10-26T05:15:01.092Z,11.3
2023-10-26T05:18:01.165Z,11.3
2023-10-26T05:21:01.061Z,11.3
2023-10-26T05:24:00.995Z,11.3
2023-10-26T05:27:01.053Z,11.3
2023-10-26T05:30:01.066Z,11.3
2023-10-26T05:33:01.177Z,11.3
2023-10-26T05:36:01.434Z,11.3
2023-10-26T05:39:01.102Z,11.3
2023-10-26T05:42:00.999Z,11.3
2023-10-26T05:45:01.051Z,11.3
2023-10-26T05:48:01.099Z,11.3
2023-10-26T05:51:01.087Z,11.3
2023-10-26T05:54:01.084Z,11.3
2023-10-26T05:57:01.070Z,11.3
2023-10-26T06:00:01.368Z,11.3
2023-10-26T06:03:01.169Z,11.3
2023-10-26T06:06:01.151Z,11.3
2023-10-26T06:09:01.157Z,11.3
2023-10-26T06:12:01.226Z,11.3
2023-10-26T06:15:01.067Z,11.3
2023-10-26T06:18:01.222Z,11.2
2023-10-26T06:21:01.089Z,11.2
2023-10-26T06:24:01.149Z,11.2
2023-10-26T06:27:01.097Z,11.2
2023-10-26T06:30:01.135Z,11.2
2023-10-26T06:33:01.385Z,11.2
2023-10-26T06:36:01.090Z,11.2
2023-10-26T06:39:01.128Z,11.2
2023-10-26T06:42:01.073Z,11.2
2023-10-26T06:45:01.143Z,11.2
2023-10-26T06:48:01.227Z,11.1
2023-10-26T06:51:01.162Z,11.1
2023-10-26T06:54:01.134Z,11.1
2023-10-26T06:57:01.080Z,11.1
2023-10-26T07:00:01.147Z,11.1
2023-10-26T07:03:01.334Z,11.1
2023-10-26T07:06:01.074Z,11.1
2023-10-26T07:09:01.061Z,11.1
2023-10-26T07:12:01.174Z,11.1
2023-10-26T07:15:01.203Z,11.1
2023-10-26T07:18:01.409Z,11.1
2023-10-26T07:21:01.048Z,11.1
2023-10-26T07:24:01.034Z,11.1
2023-10-26T07:27:01.122Z,11.1
2023-10-26T07:30:01.121Z,11.1
2023-10-26T07:33:01.126Z,11.1
2023-10-26T07:36:01.069Z,11.1
2023-10-26T07:39:48.640Z,11.1
2023-10-26T07:42:09.794Z,11.1
2023-10-26T07:45:01.002Z,11.1
2023-10-26T07:48:02.313Z,11.1
2023-10-26T07:51:01.048Z,11.1
2023-10-26T07:54:01.098Z,11.1
2023-10-26T07:57:01.094Z,11.1
2023-10-26T08:00:00.994Z,11.1
2023-10-26T08:03:01.527Z,11.2
2023-10-26T08:06:01.102Z,11.2
2023-10-26T08:09:01.060Z,11.2
2023-10-26T08:12:00.983Z,11.2
2023-10-26T08:18:01.213Z,11.2
2023-10-26T08:21:16.550Z,11.2
2023-10-26T08:24:00.965Z,11.2
2023-10-26T08:27:00.962Z,11.2
2023-10-26T08:30:01.062Z,11.2
2023-10-26T08:33:01.488Z,11.2
2023-10-26T08:36:01.019Z,11.2
2023-10-26T08:39:01.011Z,11.2
2023-10-26T08:42:01.013Z,11.2
2023-10-26T08:45:01.026Z,11.2
2023-10-26T08:48:01.112Z,11.4
2023-10-26T08:51:00.997Z,11.4
2023-10-26T08:54:01.076Z,11.4
2023-10-26T08:57:01.144Z,11.4
2023-10-26T09:00:01.209Z,11.5
2023-10-26T09:03:04.264Z,11.5
2023-10-26T09:06:01.073Z,11.5
2023-10-26T09:09:01.045Z,11.5
2023-10-26T09:12:00.972Z,11.5
2023-10-26T09:15:01.224Z,11.5
2023-10-26T09:18:01.023Z,11.5
2023-10-26T09:21:01.051Z,11.5
2023-10-26T09:24:01.073Z,11.5
2023-10-26T09:27:00.979Z,11.5
2023-10-26T09:30:01.346Z,11.5
2023-10-26T09:33:01.464Z,11.5
2023-10-26T09:36:01.009Z,11.5
2023-10-26T09:39:01.081Z,11.5
2023-10-26T09:42:01.043Z,11.5
2023-10-26T09:45:01.043Z,11.5
2023-10-26T09:48:01.264Z,11.5
2023-10-26T09:51:01.061Z,11.8
2023-10-26T09:54:01.235Z,11.8
2023-10-26T09:57:01.051Z,11.8
2023-10-26T10:00:01.255Z,11.8
2023-10-26T10:03:01.098Z,11.8
2023-10-26T10:06:01.020Z,11.8
2023-10-26T10:09:01.019Z,11.8
2023-10-26T10:12:01.055Z,11.8
2023-10-26T10:15:36.634Z,11.8
2023-10-26T10:18:01.100Z,11.8
2023-10-26T10:21:00.993Z,11.8
2023-10-26T10:24:01.047Z,11.8
2023-10-26T10:27:01.159Z,11.8
2023-10-26T10:30:00.987Z,11.8
2023-10-26T10:33:01.023Z,11.8
2023-10-26T10:36:01.121Z,11.8
2023-10-26T10:39:01.081Z,11.8
2023-10-26T10:42:01.052Z,11.8
2023-10-26T10:45:01.081Z,11.8
2023-10-26T10:48:01.102Z,11.8
2023-10-26T10:51:00.974Z,11.8
2023-10-26T10:54:10.180Z,11.8
2023-10-26T10:57:00.925Z,12.1
2023-10-26T11:00:01.003Z,12.1
2023-10-26T11:03:01.133Z,12.1
2023-10-26T11:06:01.040Z,12.1
2023-10-26T11:09:01.047Z,12.1
2023-10-26T11:12:01.107Z,12.1
2023-10-26T11:15:01.031Z,12.1
2023-10-26T11:18:01.132Z,12.1
2023-10-26T11:21:00.937Z,12.1
2023-10-26T11:24:01.063Z,12.3
2023-10-26T11:27:01.065Z,12.3
2023-10-26T11:30:01.082Z,12.3
2023-10-26T11:33:01.071Z,12.3
2023-10-26T11:36:01.127Z,12.3
2023-10-26T11:39:02.011Z,12.3
2023-10-26T11:42:01.167Z,12.3
2023-10-26T11:45:01.352Z,12.3
2023-10-26T11:48:01.089Z,12.3
2023-10-26T11:51:01.039Z,12.3
2023-10-26T11:54:01.016Z,12.3
2023-10-26T11:57:01.062Z,12.3
2023-10-26T12:00:01.151Z,12.3
2023-10-26T12:03:01.196Z,12.3
2023-10-26T12:06:00.998Z,12.3
2023-10-26T12:09:01.026Z,12.3
2023-10-26T12:12:01.014Z,12.3
2023-10-26T12:15:01.110Z,12.3
2023-10-26T12:18:01.286Z,12.3
2023-10-26T12:21:00.942Z,12.3
2023-10-26T12:24:01.097Z,12.3
2023-10-26T12:27:01.050Z,12.3
2023-10-26T12:30:01.052Z,12.3
2023-10-26T12:33:01.235Z,12.3
2023-10-26T12:36:00.984Z,12.3
2023-10-26T12:39:01.026Z,12.3
2023-10-26T12:42:01.028Z,12.3
2023-10-26T12:45:01.034Z,12.3
2023-10-26T12:48:01.281Z,12.3
2023-10-26T12:51:01.002Z,12.3
2023-10-26T12:54:11.007Z,12.4
2023-10-26T12:57:01.072Z,12.4
2023-10-26T13:00:01.051Z,12.4
2023-10-26T13:03:01.161Z,12.4
2023-10-26T13:06:01.013Z,12.4
2023-10-26T13:09:01.067Z,12.4
2023-10-26T13:12:01.022Z,12.4
2023-10-26T13:15:05.337Z,12.4
2023-10-26T13:18:01.164Z,12.5
2023-10-26T13:21:01.066Z,12.5
2023-10-26T13:24:01.116Z,12.5
2023-10-26T13:27:01.062Z,12.5
2023-10-26T13:30:01.020Z,12.5
2023-10-26T13:33:01.144Z,12.5
2023-10-26T13:36:01.098Z,12.5
2023-10-26T13:39:00.965Z,12.5
2023-10-26T13:42:01.085Z,12.5
2023-10-26T13:45:01.049Z,12.5
2023-10-26T13:48:01.151Z,12.6
2023-10-26T13:51:00.949Z,12.6
2023-10-26T13:54:01.152Z,12.6
2023-10-26T13:57:01.088Z,12.6
2023-10-26T14:00:01.048Z,12.6
2023-10-26T14:03:01.294Z,12.6
2023-10-26T14:06:01.040Z,12.6
2023-10-26T14:09:01.008Z,12.6
2023-10-26T14:12:00.997Z,12.6
2023-10-26T14:15:00.998Z,12.6
2023-10-26T14:18:01.347Z,12.6
2023-10-26T14:21:00.988Z,12.6
2023-10-26T14:24:01.101Z,12.4
2023-10-26T14:27:01.077Z,12.4
2023-10-26T14:30:01.064Z,12.4
2023-10-26T14:33:01.062Z,12.4
2023-10-26T14:36:00.995Z,12.4
2023-10-26T14:39:01.034Z,12.4
2023-10-26T14:42:01.072Z,12.4
2023-10-26T14:45:00.984Z,12.4
2023-10-26T14:48:01.065Z,12.4
2023-10-26T14:51:01.030Z,12.4
2023-10-26T14:54:01.044Z,12.4
2023-10-26T14:57:01.085Z,12.4
2023-10-26T15:00:01.161Z,12.4
2023-10-26T15:03:01.030Z,12.4
2023-10-26T15:06:01.107Z,12.4
2023-10-26T15:09:00.995Z,12.4
2023-10-26T15:12:01.044Z,12.4
2023-10-26T15:15:01.144Z,12.4
2023-10-26T15:18:01.071Z,12.4
2023-10-26T15:21:01.052Z,12.4
2023-10-26T15:24:00.981Z,12.4
2023-10-26T15:27:01.083Z,12.4
2023-10-26T15:30:01.042Z,12.4
2023-10-26T15:33:01.260Z,12.4
2023-10-26T15:36:01.018Z,12.4
2023-10-26T15:39:01.018Z,12.4
2023-10-26T15:42:01.093Z,12.4
2023-10-26T15:45:01.003Z,12.4
2023-10-26T15:48:09.871Z,12.4
2023-10-26T15:51:01.116Z,12.4
2023-10-26T15:54:01.088Z,12.4
2023-10-26T15:57:01.098Z,12.4
2023-10-26T16:00:01.059Z,12.4
2023-10-26T16:03:01.244Z,12.4
2023-10-26T16:06:01.061Z,12.4
2023-10-26T16:09:01.013Z,12.4
2023-10-26T16:12:01.105Z,12.4
2023-10-26T16:15:01.156Z,12.4
2023-10-26T16:18:01.110Z,12.4
2023-10-26T16:21:01.071Z,12.4
2023-10-26T16:24:01.040Z,12.4
2023-10-26T16:27:01.091Z,12.2
2023-10-26T16:30:01.228Z,12.2
2023-10-26T16:33:01.157Z,12.2
2023-10-26T16:36:01.009Z,12.2
2023-10-26T16:39:01.007Z,12.2
2023-10-26T16:42:01.008Z,12.2
2023-10-26T16:45:00.980Z,12.2
2023-10-26T16:48:01.104Z,12.2
2023-10-26T16:51:01.127Z,12.2
2023-10-26T16:54:01.010Z,12.2
2023-10-26T16:57:00.956Z,12.2
2023-10-26T17:00:01.028Z,12.2
2023-10-26T17:03:01.076Z,12.2
2023-10-26T17:06:01.035Z,12.2
2023-10-26T17:09:01.078Z,12.2
2023-10-26T17:12:01.014Z,12.2
2023-10-26T17:15:01.014Z,12.2
2023-10-26T17:18:01.063Z,12.2
2023-10-26T17:21:01.047Z,12.2
2023-10-26T17:24:00.980Z,11.9
2023-10-26T17:27:01.000Z,11.9
2023-10-26T17:30:00.975Z,11.9
2023-10-26T17:33:01.103Z,11.9
2023-10-26T17:36:00.990Z,11.9
2023-10-26T17:39:01.039Z,11.8
2023-10-26T17:42:01.021Z,11.8
2023-10-26T17:45:01.243Z,11.8
2023-10-26T17:48:01.106Z,11.8
2023-10-26T17:51:01.024Z,11.8
2023-10-26T17:54:01.010Z,11.8
2023-10-26T17:57:01.015Z,11.8
2023-10-26T18:00:01.048Z,11.8
2023-10-26T18:03:01.063Z,11.8
2023-10-26T18:06:01.054Z,11.8
2023-10-26T18:09:01.009Z,11.8
2023-10-26T18:12:01.157Z,11.8
2023-10-26T18:15:01.026Z,11.7
2023-10-26T18:18:01.530Z,11.7
2023-10-26T18:21:00.995Z,11.7
2023-10-26T18:24:01.125Z,11.7
2023-10-26T18:27:01.044Z,11.7
2023-10-26T18:30:01.060Z,11.7
2023-10-26T18:33:01.075Z,11.7
2023-10-26T18:36:01.036Z,11.7
2023-10-26T18:39:01.082Z,11.7
2023-10-26T18:42:01.075Z,11.7
2023-10-26T18:45:01.099Z,11.7
2023-10-26T18:48:02.370Z,11.6
2023-10-26T18:51:01.151Z,11.6
2023-10-26T18:54:01.037Z,11.6
2023-10-26T18:57:00.977Z,11.6
2023-10-26T19:00:00.943Z,11.6
2023-10-26T19:03:01.083Z,11.6
2023-10-26T19:06:01.009Z,11.5
2023-10-26T19:09:01.018Z,11.5
2023-10-26T19:12:00.946Z,11.5
2023-10-26T19:15:00.989Z,11.5
2023-10-26T19:18:00.997Z,11.5
2023-10-26T19:21:01.071Z,11.5
2023-10-26T19:24:01.096Z,11.5
2023-10-26T19:27:01.013Z,11.5
2023-10-26T19:30:00.947Z,11.5
2023-10-26T19:33:01.275Z,11.5
2023-10-26T19:36:00.977Z,11.4
2023-10-26T19:39:01.050Z,11.4
2023-10-26T19:42:00.997Z,11.4
2023-10-26T19:45:01.040Z,11.4
2023-10-26T19:48:01.064Z,11.4
2023-10-26T19:51:01.027Z,11.4
2023-10-26T19:54:00.995Z,11.4
2023-10-26T19:57:01.074Z,11.4
2023-10-26T20:00:01.021Z,11.4
2023-10-26T20:03:01.078Z,11.4
2023-10-26T20:06:03.935Z,11.3
2023-10-26T20:09:00.984Z,11.3
2023-10-26T20:12:01.150Z,11.3
2023-10-26T20:15:01.005Z,11.3
2023-10-26T20:18:01.007Z,11.3
2023-10-26T20:21:00.964Z,11.3
2023-10-26T20:24:00.939Z,11.3
2023-10-26T20:27:01.009Z,11.3
2023-10-26T20:30:01.004Z,11.3
2023-10-26T20:33:01.058Z,11.3
2023-10-26T20:36:01.011Z,11.3
2023-10-26T20:39:01.260Z,11.3
2023-10-26T20:42:00.990Z,11.3
2023-10-26T20:45:00.988Z,11.3
2023-10-26T20:48:01.103Z,11.3
2023-10-26T20:51:01.321Z,11.2
2023-10-26T20:54:00.982Z,11.2
2023-10-26T20:57:01.029Z,11.2
2023-10-26T21:00:01.030Z,11.2
2023-10-26T21:03:01.106Z,11.2
2023-10-26T21:06:00.962Z,11.2
2023-10-26T21:09:01.544Z,11.2
2023-10-26T21:12:00.982Z,11.2
2023-10-26T21:15:00.980Z,11.2
2023-10-26T21:18:01.048Z,11.2
2023-10-26T21:21:01.073Z,11.2
2023-10-26T21:24:01.167Z,11.2
2023-10-26T21:27:01.007Z,11.2
2023-10-26T21:30:01.002Z,11.2
2023-10-26T21:33:01.114Z,11.2
2023-10-26T21:36:01.112Z,11
2023-10-26T21:39:01.033Z,11
2023-10-26T21:42:00.996Z,11
2023-10-26T21:45:01.024Z,11
2023-10-26T21:48:01.086Z,11
2023-10-26T21:51:01.037Z,11
2023-10-26T21:54:00.996Z,11
2023-10-26T21:57:01.065Z,10.9
2023-10-26T22:00:01.412Z,10.9
2023-10-26T22:03:01.210Z,10.9
2023-10-26T22:06:00.979Z,10.9
2023-10-26T22:09:01.217Z,10.9
2023-10-26T22:12:01.013Z,10.9
2023-10-26T22:15:01.049Z,10.9
2023-10-26T22:18:01.191Z,10.9
2023-10-26T22:21:00.997Z,10.9
2023-10-26T22:24:00.998Z,10.9
2023-10-26T22:27:01.016Z,10.9
2023-10-26T22:30:01.182Z,10.9
2023-10-26T22:33:01.100Z,10.9
2023-10-26T22:36:00.991Z,10.9
2023-10-26T22:39:00.992Z,10.9
2023-10-26T22:42:01.005Z,10.9
2023-10-26T22:45:00.992Z,10.9
2023-10-26T22:48:01.126Z,10.9
2023-10-26T22:51:00.973Z,10.8
2023-10-26T22:54:00.961Z,10.8
2023-10-26T22:57:01.023Z,10.8
2023-10-26T23:00:01.016Z,10.8
2023-10-26T23:03:01.126Z,10.8
2023-10-26T23:06:01.088Z,10.8
2023-10-26T23:09:01.038Z,10.7
2023-10-26T23:12:00.954Z,10.7
2023-10-26T23:15:01.033Z,10.7
2023-10-26T23:18:01.041Z,10.7
2023-10-26T23:21:01.003Z,10.7
2023-10-26T23:24:00.975Z,10.7
2023-10-26T23:27:00.961Z,10.7
2023-10-26T23:30:01.057Z,10.7
2023-10-26T23:33:01.028Z,10.7
2023-10-26T23:36:01.019Z,10.5
2023-10-26T23:39:00.942Z,10.5
2023-10-26T23:42:01.161Z,10.5
2023-10-26T23:45:00.974Z,10.5
2023-10-26T23:48:01.355Z,10.4
2023-10-26T23:51:00.962Z,10.4
2023-10-26T23:54:00.980Z,10.4
2023-10-26T23:57:00.981Z,10.4
